Granjeno, Texas
Current Conditions -  °F | °C
As of 2:53 AM on Saturday 22 Nov 2014 (Local Time) from KMFE Reporting Station
Overcast Overcast  
Wind Chill: 71°   Ceiling: 5500
Heat Index: 71°   Visibility: 10mi
Dew Point: 68°   Wind: 8mph
Humidity: 90%   Direction: 120°ESE
Pressure: 29.97"   Gusts: NA
Location:  26.2167°N, 98.325°W
Report Text: KMFE 220853Z AUTO 12007KT 10SM FEW035 OVC055 22/20 A2997 RMK AO2 SLP147 T02170200 56013
Loading
Personal Weather Stations






























Interactive Weather Map New forecast layout! Learn more

10-Day Weather Forecast

Advertisements
Track Severe Weather on mobile